createdAt,value
2019-05-16T00:01:19.221Z,2.90
2019-05-16T00:03:48.993Z,3.03
2019-05-16T00:06:19.655Z,3.30
2019-05-16T00:08:48.552Z,3.07
2019-05-16T00:11:17.934Z,2.53
2019-05-16T00:13:48.927Z,2.97
2019-05-16T00:16:18.705Z,3.00
2019-05-16T00:18:48.168Z,3.17
2019-05-16T00:21:17.994Z,3.00
2019-05-16T00:23:48.574Z,3.10
2019-05-16T00:26:19.719Z,3.23
2019-05-16T00:28:48.685Z,3.37
2019-05-16T00:31:18.353Z,2.70
2019-05-16T00:33:48.679Z,3.43
2019-05-16T00:36:18.865Z,3.47
2019-05-16T00:38:48.593Z,3.50
2019-05-16T00:41:18.064Z,3.27
2019-05-16T00:43:48.591Z,3.23
2019-05-16T00:46:19.947Z,3.10
2019-05-16T00:48:48.748Z,3.30
2019-05-16T00:51:18.468Z,2.97
2019-05-16T00:53:48.342Z,3.03
2019-05-16T00:56:18.556Z,3.23
2019-05-16T00:58:48.404Z,3.00
2019-05-16T01:01:18.967Z,2.97
2019-05-16T01:03:48.404Z,3.30
2019-05-16T01:06:22.641Z,2.70
2019-05-16T01:08:48.763Z,2.87
2019-05-16T01:11:18.486Z,2.50
2019-05-16T01:13:48.741Z,2.70
2019-05-16T01:16:18.670Z,2.83
2019-05-16T01:18:48.773Z,3.20
2019-05-16T01:21:18.626Z,2.50
2019-05-16T01:23:48.196Z,2.90
2019-05-16T01:26:18.600Z,2.77
2019-05-16T01:28:48.350Z,2.90
2019-05-16T01:31:19.234Z,2.73
2019-05-16T01:33:49.345Z,3.37
2019-05-16T01:36:31.836Z,2.70
2019-05-16T01:38:48.863Z,2.93
2019-05-16T01:41:18.151Z,2.77
2019-05-16T01:43:48.347Z,3.07
2019-05-16T01:46:18.170Z,2.80
2019-05-16T01:48:48.496Z,2.90
2019-05-16T01:51:18.382Z,3.20
2019-05-16T01:53:48.791Z,2.70
2019-05-16T01:56:18.172Z,3.23
2019-05-16T01:58:49.075Z,2.80
2019-05-16T02:01:19.078Z,2.83
2019-05-16T02:03:48.283Z,2.70
2019-05-16T02:06:18.345Z,2.97
2019-05-16T02:08:48.664Z,2.70
2019-05-16T02:11:18.159Z,3.00
2019-05-16T02:13:48.477Z,2.97
2019-05-16T02:16:18.740Z,2.50
2019-05-16T02:18:48.812Z,3.27
2019-05-16T02:21:18.323Z,2.90
2019-05-16T02:23:48.964Z,3.23
2019-05-16T02:26:19.184Z,2.77
2019-05-16T02:28:50.583Z,3.00
2019-05-16T02:31:22.454Z,2.80
2019-05-16T02:33:51.118Z,3.10
2019-05-16T02:36:21.625Z,2.90
2019-05-16T02:38:55.422Z,2.67
2019-05-16T02:41:21.854Z,2.80
2019-05-16T02:43:51.030Z,2.90
2019-05-16T02:46:21.931Z,2.90
2019-05-16T02:48:51.871Z,3.03
2019-05-16T02:51:21.554Z,2.90
2019-05-16T02:53:51.271Z,2.67
2019-05-16T02:56:21.500Z,2.50
2019-05-16T02:58:52.178Z,2.60
2019-05-16T03:01:21.836Z,2.57
2019-05-16T03:03:51.689Z,2.30
2019-05-16T03:06:21.371Z,2.90
2019-05-16T03:08:51.175Z,2.73
2019-05-16T03:11:21.155Z,2.60
2019-05-16T03:13:52.037Z,2.87
2019-05-16T03:16:22.457Z,2.87
2019-05-16T03:18:53.289Z,2.70
2019-05-16T03:21:23.631Z,2.27
2019-05-16T03:23:52.515Z,2.60
2019-05-16T03:26:21.417Z,2.47
2019-05-16T03:28:52.155Z,2.80
2019-05-16T03:31:24.336Z,2.70
2019-05-16T03:33:58.638Z,2.57
2019-05-16T03:36:25.041Z,3.07
2019-05-16T03:38:52.829Z,2.70
2019-05-16T03:41:21.863Z,3.20
2019-05-16T03:43:50.935Z,3.10
2019-05-16T03:46:21.506Z,2.70
2019-05-16T03:48:52.000Z,3.20
2019-05-16T03:51:21.814Z,3.07
2019-05-16T03:53:50.949Z,2.90
2019-05-16T03:56:21.799Z,3.13
2019-05-16T03:58:51.132Z,2.73
2019-05-16T04:01:21.050Z,2.60
2019-05-16T04:03:51.284Z,2.77
2019-05-16T04:06:22.056Z,3.03
2019-05-16T04:08:51.295Z,2.80
2019-05-16T04:11:23.181Z,3.27
2019-05-16T04:13:51.071Z,3.67
2019-05-16T04:16:20.955Z,3.03
2019-05-16T04:18:51.458Z,3.03
2019-05-16T04:21:21.903Z,2.77
2019-05-16T04:23:51.236Z,3.13
2019-05-16T04:26:21.618Z,3.33
2019-05-16T04:28:51.477Z,3.00
2019-05-16T04:31:22.131Z,3.20
2019-05-16T04:33:51.717Z,3.00
2019-05-16T04:36:21.387Z,3.30
2019-05-16T04:38:51.244Z,3.23
2019-05-16T04:41:21.409Z,3.17
2019-05-16T04:43:50.955Z,3.63
2019-05-16T04:46:21.469Z,3.40
2019-05-16T04:48:51.030Z,3.30
2019-05-16T04:51:22.025Z,3.67
2019-05-16T04:53:51.256Z,3.57
2019-05-16T04:56:21.623Z,3.60
2019-05-16T04:58:51.623Z,3.50
2019-05-16T05:01:21.900Z,3.40
2019-05-16T05:04:01.693Z,3.20
2019-05-16T05:06:21.457Z,3.63
2019-05-16T05:08:58.053Z,4.10
2019-05-16T05:11:21.723Z,3.63
2019-05-16T05:13:50.921Z,4.07
2019-05-16T05:16:20.436Z,4.23
2019-05-16T05:18:51.472Z,4.30
2019-05-16T05:21:20.901Z,4.17
2019-05-16T05:23:50.836Z,4.23
2019-05-16T05:26:20.160Z,4.43
2019-05-16T05:28:50.854Z,4.73
2019-05-16T05:31:25.081Z,4.43
2019-05-16T05:33:50.821Z,4.80
2019-05-16T05:36:21.031Z,4.47
2019-05-16T05:39:06.287Z,4.00
2019-05-16T05:41:21.114Z,3.77
2019-05-16T05:43:50.385Z,4.20
2019-05-16T05:46:20.421Z,4.33
2019-05-16T05:48:50.584Z,4.43
2019-05-16T05:51:20.682Z,3.97
2019-05-16T05:53:50.936Z,4.57
2019-05-16T05:56:20.012Z,4.80
2019-05-16T05:58:51.244Z,5.20
2019-05-16T06:01:20.575Z,4.93
2019-05-16T06:03:50.538Z,4.87
2019-05-16T06:06:21.060Z,5.23
2019-05-16T06:08:50.412Z,4.87
2019-05-16T06:11:20.562Z,5.27
2019-05-16T06:13:50.106Z,5.20
2019-05-16T06:16:20.471Z,5.70
2019-05-16T06:18:50.260Z,5.97
2019-05-16T06:21:20.355Z,5.83
2019-05-16T06:23:51.007Z,5.67
2019-05-16T06:26:20.523Z,6.33
2019-05-16T06:28:50.465Z,6.27
2019-05-16T06:31:22.092Z,5.50
2019-05-16T06:33:50.358Z,5.90
2019-05-16T06:36:20.381Z,5.80
2019-05-16T06:38:49.894Z,6.77
2019-05-16T06:41:19.931Z,6.90
2019-05-16T06:43:50.738Z,6.67
2019-05-16T06:46:20.236Z,6.40
2019-05-16T06:48:50.644Z,6.33
2019-05-16T06:51:20.168Z,6.90
2019-05-16T06:53:49.999Z,6.10
2019-05-16T06:56:20.066Z,5.97
2019-05-16T06:58:51.785Z,6.60
2019-05-16T07:01:20.910Z,6.33
2019-05-16T07:03:50.766Z,6.50
2019-05-16T07:06:46.084Z,6.10
2019-05-16T07:08:50.921Z,6.30
2019-05-16T07:11:20.249Z,6.77
2019-05-16T07:13:51.949Z,6.67
2019-05-16T07:16:20.581Z,6.90
2019-05-16T07:18:50.554Z,7.10
2019-05-16T07:21:20.327Z,7.47
2019-05-16T07:23:51.152Z,7.10
2019-05-16T07:26:20.664Z,6.97
2019-05-16T07:28:51.506Z,6.63
2019-05-16T07:31:22.628Z,6.80
2019-05-16T07:33:50.988Z,7.80
2019-05-16T07:36:20.848Z,7.57
2019-05-16T07:38:50.964Z,6.70
2019-05-16T07:41:20.578Z,6.60
2019-05-16T07:43:50.516Z,7.87
2019-05-16T07:46:20.579Z,7.77
2019-05-16T07:48:51.779Z,8.00
2019-05-16T07:51:20.670Z,8.47
2019-05-16T07:53:50.473Z,8.60
2019-05-16T07:56:20.349Z,9.30
2019-05-16T07:58:50.811Z,8.87
2019-05-16T08:01:20.895Z,8.70
2019-05-16T08:03:50.900Z,8.47
2019-05-16T08:06:20.320Z,9.13
2019-05-16T08:08:50.923Z,8.17
2019-05-16T08:11:20.513Z,7.93
2019-05-16T08:13:50.891Z,8.17
2019-05-16T08:16:20.805Z,9.50
2019-05-16T08:18:51.083Z,8.43
2019-05-16T08:21:20.409Z,8.80
2019-05-16T08:23:50.350Z,8.00
2019-05-16T08:26:22.052Z,8.97
2019-05-16T08:28:50.683Z,8.73
2019-05-16T08:31:21.378Z,9.00
2019-05-16T08:33:53.717Z,8.90
2019-05-16T08:36:22.177Z,8.17
2019-05-16T08:38:52.247Z,8.50
2019-05-16T08:41:22.081Z,7.97
2019-05-16T08:46:22.045Z,7.50
2019-05-16T08:48:53.841Z,8.20
2019-05-16T08:50:05.961Z,7.93
2019-05-16T08:51:22.234Z,8.20
2019-05-16T08:53:51.541Z,8.33
2019-05-16T08:56:21.734Z,8.50
2019-05-16T08:58:53.842Z,8.50
2019-05-16T09:01:21.965Z,8.27
2019-05-16T09:03:52.161Z,7.67
2019-05-16T09:06:22.809Z,7.93
2019-05-16T09:08:52.280Z,6.80
2019-05-16T09:11:35.625Z,7.40
2019-05-16T09:13:52.926Z,8.00
2019-05-16T09:16:21.816Z,7.53
2019-05-16T09:18:51.370Z,7.13
2019-05-16T09:21:20.551Z,7.20
2019-05-16T09:23:49.539Z,8.07
2019-05-16T09:26:19.801Z,7.00
2019-05-16T09:28:48.899Z,7.07
2019-05-16T09:31:18.122Z,7.23
2019-05-16T09:33:47.510Z,6.90
2019-05-16T09:36:17.582Z,7.93
2019-05-16T09:38:48.594Z,7.50
2019-05-16T09:41:17.310Z,6.80
2019-05-16T09:43:48.595Z,7.10
2019-05-16T09:46:17.292Z,7.23
2019-05-16T09:48:47.828Z,6.83
2019-05-16T09:51:21.139Z,6.67
2019-05-16T09:53:48.923Z,7.73
2019-05-16T09:56:18.870Z,7.07
2019-05-16T09:58:48.822Z,7.37
2019-05-16T10:01:17.835Z,6.27
2019-05-16T10:03:47.732Z,7.00
2019-05-16T10:06:19.249Z,7.30
2019-05-16T10:08:47.663Z,6.70
2019-05-16T10:11:18.116Z,6.47
2019-05-16T10:13:47.368Z,6.13
2019-05-16T10:16:16.721Z,5.97
2019-05-16T10:18:47.552Z,5.77
2019-05-16T10:21:19.876Z,6.50
2019-05-16T10:23:47.612Z,6.40
2019-05-16T10:26:17.234Z,6.30
2019-05-16T10:28:47.092Z,6.10
2019-05-16T10:31:17.750Z,6.37
2019-05-16T10:33:47.756Z,5.97
2019-05-16T10:36:17.292Z,6.47
2019-05-16T10:38:48.465Z,6.20
2019-05-16T10:41:17.638Z,6.73
2019-05-16T10:43:47.468Z,6.30
2019-05-16T10:46:17.728Z,6.13
2019-05-16T10:48:47.115Z,6.27
2019-05-16T10:51:16.937Z,6.30
2019-05-16T10:54:02.466Z,5.77
2019-05-16T10:56:16.857Z,6.67
2019-05-16T10:59:12.126Z,6.43
2019-05-16T11:01:26.615Z,6.30
2019-05-16T11:03:49.185Z,6.40
2019-05-16T11:06:25.487Z,6.20
2019-05-16T11:08:49.142Z,5.87
2019-05-16T11:11:19.983Z,5.90
2019-05-16T11:13:51.064Z,6.27
2019-05-16T11:16:19.863Z,5.80
2019-05-16T11:18:48.793Z,5.37
2019-05-16T11:21:19.353Z,6.00
2019-05-16T11:23:48.275Z,5.10
2019-05-16T11:26:17.279Z,6.93
2019-05-16T11:28:48.440Z,6.80
2019-05-16T11:31:17.650Z,4.53
2019-05-16T11:33:47.697Z,5.13
2019-05-16T11:36:16.920Z,5.20
2019-05-16T11:38:47.537Z,5.70
2019-05-16T11:41:16.786Z,5.80
2019-05-16T11:43:47.338Z,5.13
2019-05-16T11:46:16.563Z,5.30
2019-05-16T11:48:45.472Z,5.33
2019-05-16T11:51:14.369Z,5.27
2019-05-16T11:53:43.309Z,5.27
2019-05-16T11:56:12.328Z,5.10
2019-05-16T11:58:41.355Z,4.40
2019-05-16T12:01:10.385Z,5.30
2019-05-16T12:03:39.313Z,4.00
2019-05-16T12:06:10.329Z,4.63
2019-05-16T12:08:38.800Z,4.23
2019-05-16T12:11:07.801Z,5.10
2019-05-16T12:13:37.082Z,4.50
2019-05-16T12:16:07.626Z,4.77
2019-05-16T12:18:37.440Z,4.63
2019-05-16T12:21:07.645Z,4.53
2019-05-16T12:23:37.398Z,4.33
2019-05-16T12:26:07.890Z,4.33
2019-05-16T12:28:37.242Z,4.73
2019-05-16T12:31:07.188Z,4.30
2019-05-16T12:33:37.425Z,4.30
2019-05-16T12:36:07.499Z,4.00
2019-05-16T12:38:37.972Z,4.43
2019-05-16T12:41:08.274Z,4.40
2019-05-16T12:43:48.242Z,4.30
2019-05-16T12:46:07.825Z,4.87
2019-05-16T12:48:37.471Z,4.20
2019-05-16T12:51:08.306Z,4.67
2019-05-16T12:53:37.313Z,4.77
2019-05-16T12:56:06.290Z,4.10
2019-05-16T12:58:41.986Z,4.63
2019-05-16T13:01:07.770Z,4.40
2019-05-16T13:03:37.802Z,4.87
2019-05-16T13:06:06.947Z,3.70
2019-05-16T13:08:37.452Z,4.23
2019-05-16T13:11:07.277Z,4.03
2019-05-16T13:13:37.858Z,4.07
2019-05-16T13:16:07.611Z,4.60
2019-05-16T13:18:37.026Z,4.83
2019-05-16T13:21:06.821Z,4.50
2019-05-16T13:23:35.986Z,4.03
2019-05-16T13:26:07.256Z,4.07
2019-05-16T13:28:37.865Z,4.70
2019-05-16T13:31:07.718Z,4.20
2019-05-16T13:33:37.002Z,5.20
2019-05-16T13:36:07.400Z,4.50
2019-05-16T13:38:37.852Z,4.30
2019-05-16T13:41:07.645Z,3.87
2019-05-16T13:43:37.664Z,4.20
2019-05-16T13:46:07.221Z,3.90
2019-05-16T13:48:37.684Z,4.10
2019-05-16T13:51:14.654Z,4.00
2019-05-16T13:53:37.601Z,4.27
2019-05-16T13:56:12.615Z,3.67
2019-05-16T13:58:38.727Z,4.57
2019-05-16T14:01:08.125Z,4.30
2019-05-16T14:03:37.504Z,3.83
2019-05-16T14:06:07.163Z,3.87
2019-05-16T14:08:37.375Z,5.10
2019-05-16T14:11:10.284Z,3.90
2019-05-16T14:13:38.365Z,4.50
2019-05-16T14:16:07.590Z,4.30
2019-05-16T14:18:37.978Z,4.60
2019-05-16T14:21:07.160Z,3.80
2019-05-16T14:23:37.963Z,4.10
2019-05-16T14:26:07.291Z,4.23
2019-05-16T14:28:37.407Z,4.43
2019-05-16T14:31:07.438Z,3.90
2019-05-16T14:33:36.818Z,3.57
2019-05-16T14:36:07.314Z,3.50
2019-05-16T14:38:37.691Z,3.63
2019-05-16T14:41:07.999Z,3.40
2019-05-16T14:43:37.726Z,3.07
2019-05-16T14:46:09.394Z,3.87
2019-05-16T14:48:42.057Z,3.13
2019-05-16T14:51:10.947Z,3.40
2019-05-16T14:53:39.849Z,3.40
2019-05-16T14:56:08.749Z,4.23
2019-05-16T14:58:38.110Z,3.57
2019-05-16T15:01:07.507Z,4.40
2019-05-16T15:03:41.842Z,4.00
2019-05-16T15:06:11.401Z,3.70
2019-05-16T15:08:40.366Z,3.83
2019-05-16T15:17:36.679Z,3.70
2019-05-16T15:20:06.959Z,3.90
2019-05-16T15:22:38.406Z,3.23
2019-05-16T15:25:08.219Z,3.07
2019-05-16T15:27:38.347Z,3.47
2019-05-16T15:30:08.316Z,3.80
2019-05-16T15:32:38.581Z,3.60
2019-05-16T15:35:08.187Z,3.97
2019-05-16T15:37:37.517Z,3.83
2019-05-16T15:40:07.919Z,3.57
2019-05-16T15:42:37.439Z,2.97
2019-05-16T15:45:07.194Z,3.30
2019-05-16T15:47:37.377Z,3.47
2019-05-16T15:50:08.267Z,3.60
2019-05-16T15:52:38.338Z,3.20
2019-05-16T15:55:10.185Z,3.70
2019-05-16T15:57:39.728Z,3.77
2019-05-16T16:00:10.460Z,3.17
2019-05-16T16:02:39.997Z,3.30
2019-05-16T16:05:09.912Z,3.47
2019-05-16T16:07:38.974Z,3.70
2019-05-16T16:10:08.136Z,3.80
2019-05-16T16:12:37.739Z,2.93
2019-05-16T16:15:07.806Z,3.27
2019-05-16T16:17:37.976Z,3.03
2019-05-16T16:20:10.402Z,3.27
2019-05-16T16:22:38.194Z,3.87
2019-05-16T16:25:07.671Z,3.70
2019-05-16T16:27:36.731Z,3.03
2019-05-16T16:30:06.939Z,3.70
2019-05-16T16:32:37.905Z,3.20
2019-05-16T16:35:07.929Z,3.73
2019-05-16T16:37:37.992Z,3.80
2019-05-16T16:40:11.037Z,3.77
2019-05-16T16:42:37.926Z,4.03
2019-05-16T16:45:07.358Z,4.60
2019-05-16T16:47:37.722Z,4.33
2019-05-16T16:50:08.168Z,3.93
2019-05-16T16:52:38.226Z,4.37
2019-05-16T16:55:08.636Z,3.83
2019-05-16T16:57:38.455Z,3.87
2019-05-16T17:00:08.901Z,3.80
2019-05-16T17:02:37.996Z,3.77
2019-05-16T17:05:11.730Z,3.60
2019-05-16T17:07:37.837Z,3.70
2019-05-16T17:10:07.112Z,4.00
2019-05-16T17:12:41.652Z,4.37
2019-05-16T17:15:09.137Z,3.70
2019-05-16T17:17:38.283Z,4.00
2019-05-16T17:20:08.548Z,3.73
2019-05-16T17:22:37.927Z,4.17
2019-05-16T17:25:08.251Z,3.73
2019-05-16T17:27:37.850Z,4.00
2019-05-16T17:30:08.788Z,3.40
2019-05-16T17:32:39.018Z,3.77
2019-05-16T17:35:08.061Z,3.73
2019-05-16T17:37:37.577Z,4.17
2019-05-16T17:40:06.957Z,3.40
2019-05-16T17:42:37.298Z,3.40
2019-05-16T17:45:07.955Z,3.40
2019-05-16T17:47:37.126Z,3.40
2019-05-16T17:50:07.105Z,3.40
2019-05-16T17:52:36.903Z,3.73
2019-05-16T17:55:07.475Z,3.63
2019-05-16T17:57:38.076Z,3.00
2019-05-16T18:00:12.821Z,3.80
2019-05-16T18:02:38.582Z,3.50
2019-05-16T18:05:07.915Z,3.10
2019-05-16T18:07:37.270Z,2.97
2019-05-16T18:10:07.476Z,2.80
2019-05-16T18:12:37.193Z,2.73
2019-05-16T18:15:08.391Z,3.13
2019-05-16T18:17:38.973Z,2.00
2019-05-16T18:20:08.122Z,2.20
2019-05-16T18:22:37.029Z,2.37
2019-05-16T18:25:07.334Z,2.10
2019-05-16T18:27:37.556Z,2.50
2019-05-16T18:30:08.110Z,2.40
2019-05-16T18:32:37.444Z,2.30
2019-05-16T18:35:07.361Z,2.37
2019-05-16T18:37:36.550Z,2.87
2019-05-16T18:40:07.206Z,2.80
2019-05-16T18:42:36.876Z,2.33
2019-05-16T18:45:07.602Z,2.80
2019-05-16T18:47:37.785Z,2.63
2019-05-16T18:50:08.146Z,3.00
2019-05-16T18:52:37.658Z,3.13
2019-05-16T18:55:08.443Z,2.83
2019-05-16T18:57:37.939Z,2.60
2019-05-16T19:00:10.551Z,2.57
2019-05-16T19:02:38.373Z,2.93
2019-05-16T19:05:07.493Z,2.70
2019-05-16T19:07:36.899Z,2.80
2019-05-16T19:10:07.441Z,2.87
2019-05-16T19:12:37.185Z,2.70
2019-05-16T19:15:07.329Z,2.50
2019-05-16T19:17:37.852Z,2.40
2019-05-16T19:20:07.260Z,2.77
2019-05-16T19:22:37.150Z,2.77
2019-05-16T19:25:07.078Z,3.10
2019-05-16T19:27:37.060Z,2.90
2019-05-16T19:30:07.400Z,2.70
2019-05-16T19:32:39.052Z,2.80
2019-05-16T19:35:07.789Z,2.73
2019-05-16T19:37:40.412Z,3.30
2019-05-16T19:40:07.755Z,2.83
2019-05-16T19:42:37.026Z,2.83
2019-05-16T19:45:06.506Z,3.07
2019-05-16T19:47:40.350Z,3.20
2019-05-16T19:50:07.915Z,2.83
2019-05-16T19:52:36.955Z,3.43
2019-05-16T19:55:07.178Z,3.20
2019-05-16T19:57:37.393Z,3.90
2019-05-16T20:00:07.749Z,2.87
2019-05-16T20:02:37.019Z,3.17
2019-05-16T20:05:06.642Z,4.13
2019-05-16T20:07:37.165Z,3.50
2019-05-16T20:10:09.402Z,3.83
2019-05-16T20:12:37.610Z,3.87
2019-05-16T20:15:10.932Z,3.60
2019-05-16T20:17:50.961Z,3.60
2019-05-16T20:20:10.055Z,4.00
2019-05-16T20:22:38.964Z,4.27
2019-05-16T20:25:08.135Z,4.63
2019-05-16T20:27:37.030Z,3.57
2019-05-16T20:30:06.737Z,4.17
2019-05-16T20:32:37.337Z,4.13
2019-05-16T20:35:08.760Z,3.20
2019-05-16T20:37:37.340Z,4.37
2019-05-16T20:40:09.219Z,4.23
2019-05-16T20:42:38.097Z,4.60
2019-05-16T20:45:08.025Z,3.53
2019-05-16T20:47:37.291Z,3.80
2019-05-16T20:50:07.599Z,3.40
2019-05-16T20:52:37.814Z,3.50
2019-05-16T20:55:07.639Z,3.80
2019-05-16T20:57:37.637Z,4.23
2019-05-16T21:00:07.504Z,3.87
2019-05-16T21:02:37.974Z,4.50
2019-05-16T21:05:08.157Z,5.43
2019-05-16T21:07:37.628Z,4.23
2019-05-16T21:10:07.950Z,4.83
2019-05-16T21:12:40.285Z,5.57
2019-05-16T21:15:08.429Z,5.03
2019-05-16T21:17:37.347Z,5.17
2019-05-16T21:20:07.749Z,4.33
2019-05-16T21:22:37.182Z,4.73
2019-05-16T21:25:06.560Z,4.90
2019-05-16T21:27:37.881Z,4.60
2019-05-16T21:30:07.396Z,4.43
2019-05-16T21:32:38.082Z,5.00
2019-05-16T21:35:08.141Z,5.53
2019-05-16T21:37:37.529Z,5.37
2019-05-16T21:40:08.002Z,5.67
2019-05-16T21:42:38.792Z,6.37
2019-05-16T21:45:08.053Z,5.30
2019-05-16T21:47:38.241Z,5.27
2019-05-16T21:50:08.702Z,6.20
2019-05-16T21:52:37.669Z,5.50
2019-05-16T21:55:08.228Z,5.03
2019-05-16T21:57:37.832Z,4.97
2019-05-16T22:00:21.989Z,5.63
2019-05-16T22:02:52.861Z,4.80
2019-05-16T22:05:22.454Z,4.47
2019-05-16T22:07:51.646Z,4.67
2019-05-16T22:10:20.724Z,4.53
2019-05-16T22:12:49.875Z,4.70
2019-05-16T22:15:19.200Z,5.00
2019-05-16T22:17:48.467Z,4.60
2019-05-16T22:20:17.429Z,5.43
2019-05-16T22:22:46.936Z,5.30
2019-05-16T22:25:16.763Z,5.70
2019-05-16T22:27:48.452Z,5.83
2019-05-16T22:30:18.081Z,5.67
2019-05-16T22:32:47.802Z,5.93
2019-05-16T22:35:17.939Z,6.63
2019-05-16T22:37:55.191Z,5.73
2019-05-16T22:40:18.847Z,5.63
2019-05-16T22:42:47.807Z,7.00
2019-05-16T22:45:19.702Z,7.23
2019-05-16T22:47:49.649Z,7.33
2019-05-16T22:50:18.768Z,6.63
2019-05-16T22:52:47.696Z,6.40
2019-05-16T22:55:17.662Z,7.40
2019-05-16T22:57:47.622Z,5.90
2019-05-16T23:00:26.446Z,6.70
2019-05-16T23:02:56.601Z,7.20
2019-05-16T23:05:27.400Z,6.93
2019-05-16T23:08:05.689Z,7.53
2019-05-16T23:10:28.041Z,7.17
2019-05-16T23:12:57.390Z,7.40
2019-05-16T23:15:26.677Z,7.33
2019-05-16T23:17:57.389Z,7.07
2019-05-16T23:20:27.729Z,7.97
2019-05-16T23:22:56.899Z,8.10
2019-05-16T23:25:25.807Z,7.77
2019-05-16T23:27:56.611Z,8.43
2019-05-16T23:30:27.268Z,8.20
2019-05-16T23:32:56.367Z,8.33
2019-05-16T23:35:26.929Z,7.40
2019-05-16T23:37:56.942Z,8.40
2019-05-16T23:40:26.146Z,7.70
2019-05-16T23:42:56.866Z,7.83
2019-05-16T23:45:27.477Z,7.90
2019-05-16T23:47:56.481Z,7.27
2019-05-16T23:50:27.398Z,8.27
2019-05-16T23:52:56.390Z,9.20
2019-05-16T23:55:27.669Z,9.57
2019-05-16T23:57:57.150Z,11.13
